sensor_id;sensor_type;location;lat;lon;timestamp;P1;durP1;ratioP1;P2;durP2;ratioP2
24715;SDS011;12822;50.124;8.678;2023-12-07T00:01:26;18.05;;;10.13;;
24715;SDS011;12822;50.124;8.678;2023-12-07T00:03:52;15.32;;;9.98;;
24715;SDS011;12822;50.124;8.678;2023-12-07T00:06:18;19.90;;;9.95;;
24715;SDS011;12822;50.124;8.678;2023-12-07T00:08:44;19.10;;;10.73;;
24715;SDS011;12822;50.124;8.678;2023-12-07T00:11:10;16.75;;;9.95;;
24715;SDS011;12822;50.124;8.678;2023-12-07T00:13:36;20.48;;;11.05;;
24715;SDS011;12822;50.124;8.678;2023-12-07T00:16:02;23.73;;;11.27;;
24715;SDS011;12822;50.124;8.678;2023-12-07T00:18:28;24.70;;;11.50;;
24715;SDS011;12822;50.124;8.678;2023-12-07T00:20:54;25.90;;;12.32;;
24715;SDS011;12822;50.124;8.678;2023-12-07T00:23:20;17.38;;;11.50;;
24715;SDS011;12822;50.124;8.678;2023-12-07T00:25:46;20.48;;;12.32;;
24715;SDS011;12822;50.124;8.678;2023-12-07T00:28:12;17.85;;;11.70;;
24715;SDS011;12822;50.124;8.678;2023-12-07T00:30:39;22.13;;;11.73;;
24715;SDS011;12822;50.124;8.678;2023-12-07T00:33:07;21.60;;;12.13;;
24715;SDS011;12822;50.124;8.678;2023-12-07T00:35:34;20.48;;;11.73;;
24715;SDS011;12822;50.124;8.678;2023-12-07T00:38:01;19.85;;;11.38;;
24715;SDS011;12822;50.124;8.678;2023-12-07T00:40:26;22.80;;;12.18;;
24715;SDS011;12822;50.124;8.678;2023-12-07T00:42:53;19.83;;;11.45;;
24715;SDS011;12822;50.124;8.678;2023-12-07T00:45:21;20.85;;;11.20;;
24715;SDS011;12822;50.124;8.678;2023-12-07T00:47:47;24.55;;;12.88;;
24715;SDS011;12822;50.124;8.678;2023-12-07T00:50:13;29.15;;;13.35;;
24715;SDS011;12822;50.124;8.678;2023-12-07T00:52:40;20.90;;;12.70;;
24715;SDS011;12822;50.124;8.678;2023-12-07T00:55:06;23.25;;;11.73;;
24715;SDS011;12822;50.124;8.678;2023-12-07T00:57:32;22.20;;;12.75;;
24715;SDS011;12822;50.124;8.678;2023-12-07T00:59:58;21.48;;;13.02;;
24715;SDS011;12822;50.124;8.678;2023-12-07T01:02:24;26.85;;;13.15;;
24715;SDS011;12822;50.124;8.678;2023-12-07T01:04:50;22.38;;;13.07;;
24715;SDS011;12822;50.124;8.678;2023-12-07T01:07:16;19.70;;;12.18;;
24715;SDS011;12822;50.124;8.678;2023-12-07T01:09:42;27.60;;;13.57;;
24715;SDS011;12822;50.124;8.678;2023-12-07T01:12:08;22.95;;;12.68;;
24715;SDS011;12822;50.124;8.678;2023-12-07T01:14:34;20.80;;;12.38;;
24715;SDS011;12822;50.124;8.678;2023-12-07T01:17:00;27.30;;;13.27;;
24715;SDS011;12822;50.124;8.678;2023-12-07T01:19:27;21.52;;;13.23;;
24715;SDS011;12822;50.124;8.678;2023-12-07T01:21:53;22.77;;;13.45;;
24715;SDS011;12822;50.124;8.678;2023-12-07T01:24:19;30.23;;;13.48;;
24715;SDS011;12822;50.124;8.678;2023-12-07T01:26:45;24.35;;;13.50;;
24715;SDS011;12822;50.124;8.678;2023-12-07T01:29:11;24.92;;;13.82;;
24715;SDS011;12822;50.124;8.678;2023-12-07T01:31:39;25.75;;;14.98;;
24715;SDS011;12822;50.124;8.678;2023-12-07T01:34:05;32.40;;;14.73;;
24715;SDS011;12822;50.124;8.678;2023-12-07T01:36:30;24.55;;;13.77;;
24715;SDS011;12822;50.124;8.678;2023-12-07T01:38:56;25.38;;;14.13;;
24715;SDS011;12822;50.124;8.678;2023-12-07T01:41:22;25.90;;;13.88;;
24715;SDS011;12822;50.124;8.678;2023-12-07T01:43:48;26.98;;;14.32;;
24715;SDS011;12822;50.124;8.678;2023-12-07T01:46:15;24.02;;;14.10;;
24715;SDS011;12822;50.124;8.678;2023-12-07T01:48:41;23.98;;;13.43;;
24715;SDS011;12822;50.124;8.678;2023-12-07T01:51:08;23.13;;;12.90;;
24715;SDS011;12822;50.124;8.678;2023-12-07T01:53:34;27.67;;;14.73;;
24715;SDS011;12822;50.124;8.678;2023-12-07T01:56:00;31.30;;;13.45;;
24715;SDS011;12822;50.124;8.678;2023-12-07T01:58:26;27.17;;;15.15;;
24715;SDS011;12822;50.124;8.678;2023-12-07T02:00:52;26.75;;;14.52;;
24715;SDS011;12822;50.124;8.678;2023-12-07T02:03:18;26.58;;;14.93;;
24715;SDS011;12822;50.124;8.678;2023-12-07T02:05:48;30.90;;;14.98;;
24715;SDS011;12822;50.124;8.678;2023-12-07T02:08:15;30.85;;;15.30;;
24715;SDS011;12822;50.124;8.678;2023-12-07T02:10:41;26.70;;;15.40;;
24715;SDS011;12822;50.124;8.678;2023-12-07T02:13:07;28.95;;;15.95;;
24715;SDS011;12822;50.124;8.678;2023-12-07T02:15:33;27.80;;;14.38;;
24715;SDS011;12822;50.124;8.678;2023-12-07T02:18:02;32.53;;;14.25;;
24715;SDS011;12822;50.124;8.678;2023-12-07T02:20:32;26.58;;;14.32;;
24715;SDS011;12822;50.124;8.678;2023-12-07T02:23:03;27.85;;;14.20;;
24715;SDS011;12822;50.124;8.678;2023-12-07T02:25:36;29.80;;;14.75;;
24715;SDS011;12822;50.124;8.678;2023-12-07T02:28:05;29.60;;;13.82;;
24715;SDS011;12822;50.124;8.678;2023-12-07T02:30:31;28.23;;;14.18;;
24715;SDS011;12822;50.124;8.678;2023-12-07T02:32:57;28.80;;;13.60;;
24715;SDS011;12822;50.124;8.678;2023-12-07T02:35:23;25.60;;;14.02;;
24715;SDS011;12822;50.124;8.678;2023-12-07T02:37:50;28.08;;;14.77;;
24715;SDS011;12822;50.124;8.678;2023-12-07T02:40:21;23.48;;;13.18;;
24715;SDS011;12822;50.124;8.678;2023-12-07T02:45:13;23.80;;;13.95;;
24715;SDS011;12822;50.124;8.678;2023-12-07T02:47:40;26.27;;;14.10;;
24715;SDS011;12822;50.124;8.678;2023-12-07T02:50:08;25.15;;;14.52;;
24715;SDS011;12822;50.124;8.678;2023-12-07T02:52:35;30.95;;;14.15;;
24715;SDS011;12822;50.124;8.678;2023-12-07T02:55:01;30.00;;;14.98;;
24715;SDS011;12822;50.124;8.678;2023-12-07T02:57:27;31.33;;;16.05;;
24715;SDS011;12822;50.124;8.678;2023-12-07T02:59:54;25.17;;;15.07;;
24715;SDS011;12822;50.124;8.678;2023-12-07T03:02:20;28.77;;;14.45;;
24715;SDS011;12822;50.124;8.678;2023-12-07T03:04:46;28.73;;;14.63;;
24715;SDS011;12822;50.124;8.678;2023-12-07T03:07:12;28.35;;;15.57;;
24715;SDS011;12822;50.124;8.678;2023-12-07T03:09:38;27.20;;;14.38;;
24715;SDS011;12822;50.124;8.678;2023-12-07T03:12:04;32.47;;;15.30;;
24715;SDS011;12822;50.124;8.678;2023-12-07T03:14:30;25.65;;;14.82;;
24715;SDS011;12822;50.124;8.678;2023-12-07T03:16:56;28.33;;;14.43;;
24715;SDS011;12822;50.124;8.678;2023-12-07T03:19:22;33.08;;;14.77;;
24715;SDS011;12822;50.124;8.678;2023-12-07T03:21:48;27.77;;;14.38;;
24715;SDS011;12822;50.124;8.678;2023-12-07T03:24:14;25.13;;;14.20;;
24715;SDS011;12822;50.124;8.678;2023-12-07T03:26:40;32.50;;;15.10;;
24715;SDS011;12822;50.124;8.678;2023-12-07T03:29:06;25.15;;;14.07;;
24715;SDS011;12822;50.124;8.678;2023-12-07T03:31:32;29.52;;;14.35;;
24715;SDS011;12822;50.124;8.678;2023-12-07T03:33:58;25.75;;;14.25;;
24715;SDS011;12822;50.124;8.678;2023-12-07T03:36:26;28.08;;;14.75;;
24715;SDS011;12822;50.124;8.678;2023-12-07T03:38:52;26.73;;;14.02;;
24715;SDS011;12822;50.124;8.678;2023-12-07T03:41:18;34.75;;;14.13;;
24715;SDS011;12822;50.124;8.678;2023-12-07T03:43:44;29.02;;;14.30;;
24715;SDS011;12822;50.124;8.678;2023-12-07T03:46:10;25.05;;;14.75;;
24715;SDS011;12822;50.124;8.678;2023-12-07T03:48:36;29.42;;;15.68;;
24715;SDS011;12822;50.124;8.678;2023-12-07T03:51:02;32.08;;;14.98;;
24715;SDS011;12822;50.124;8.678;2023-12-07T03:53:28;30.65;;;15.35;;
24715;SDS011;12822;50.124;8.678;2023-12-07T03:55:55;25.98;;;14.65;;
24715;SDS011;12822;50.124;8.678;2023-12-07T03:58:21;30.05;;;17.05;;
24715;SDS011;12822;50.124;8.678;2023-12-07T04:00:47;34.35;;;15.80;;
24715;SDS011;12822;50.124;8.678;2023-12-07T04:03:12;29.42;;;15.35;;
24715;SDS011;12822;50.124;8.678;2023-12-07T04:05:38;26.73;;;15.48;;
24715;SDS011;12822;50.124;8.678;2023-12-07T04:08:04;30.15;;;14.57;;
24715;SDS011;12822;50.124;8.678;2023-12-07T04:10:31;31.30;;;16.02;;
24715;SDS011;12822;50.124;8.678;2023-12-07T04:12:57;34.17;;;15.13;;
24715;SDS011;12822;50.124;8.678;2023-12-07T04:15:23;30.15;;;15.13;;
24715;SDS011;12822;50.124;8.678;2023-12-07T04:17:49;25.05;;;14.50;;
24715;SDS011;12822;50.124;8.678;2023-12-07T04:20:15;28.73;;;15.48;;
24715;SDS011;12822;50.124;8.678;2023-12-07T04:22:41;27.20;;;15.23;;
24715;SDS011;12822;50.124;8.678;2023-12-07T04:25:08;28.40;;;15.48;;
24715;SDS011;12822;50.124;8.678;2023-12-07T04:27:34;27.23;;;14.27;;
24715;SDS011;12822;50.124;8.678;2023-12-07T04:30:00;26.42;;;14.40;;
24715;SDS011;12822;50.124;8.678;2023-12-07T04:32:26;26.08;;;14.02;;
24715;SDS011;12822;50.124;8.678;2023-12-07T04:34:52;25.50;;;13.85;;
24715;SDS011;12822;50.124;8.678;2023-12-07T04:37:18;26.50;;;14.38;;
24715;SDS011;12822;50.124;8.678;2023-12-07T04:39:44;25.35;;;13.38;;
24715;SDS011;12822;50.124;8.678;2023-12-07T04:42:10;25.63;;;14.07;;
24715;SDS011;12822;50.124;8.678;2023-12-07T04:44:36;25.15;;;14.25;;
24715;SDS011;12822;50.124;8.678;2023-12-07T04:47:02;30.23;;;15.00;;
24715;SDS011;12822;50.124;8.678;2023-12-07T04:49:28;25.65;;;14.43;;
24715;SDS011;12822;50.124;8.678;2023-12-07T04:51:54;25.98;;;14.63;;
24715;SDS011;12822;50.124;8.678;2023-12-07T04:54:20;25.63;;;13.75;;
24715;SDS011;12822;50.124;8.678;2023-12-07T04:56:46;25.90;;;14.40;;
24715;SDS011;12822;50.124;8.678;2023-12-07T04:59:12;29.17;;;13.68;;
24715;SDS011;12822;50.124;8.678;2023-12-07T05:01:39;27.58;;;14.73;;
24715;SDS011;12822;50.124;8.678;2023-12-07T05:04:05;22.85;;;13.93;;
24715;SDS011;12822;50.124;8.678;2023-12-07T05:06:31;26.48;;;13.43;;
24715;SDS011;12822;50.124;8.678;2023-12-07T05:08:57;28.60;;;14.95;;
24715;SDS011;12822;50.124;8.678;2023-12-07T05:11:23;34.70;;;15.10;;
24715;SDS011;12822;50.124;8.678;2023-12-07T05:13:49;28.45;;;14.25;;
24715;SDS011;12822;50.124;8.678;2023-12-07T05:16:15;29.15;;;13.82;;
24715;SDS011;12822;50.124;8.678;2023-12-07T05:18:41;25.92;;;14.23;;
24715;SDS011;12822;50.124;8.678;2023-12-07T05:21:07;27.55;;;13.68;;
24715;SDS011;12822;50.124;8.678;2023-12-07T05:23:33;27.92;;;14.25;;
24715;SDS011;12822;50.124;8.678;2023-12-07T05:25:59;26.60;;;13.77;;
24715;SDS011;12822;50.124;8.678;2023-12-07T05:28:26;29.73;;;14.35;;
24715;SDS011;12822;50.124;8.678;2023-12-07T05:30:52;31.58;;;13.60;;
24715;SDS011;12822;50.124;8.678;2023-12-07T05:33:18;25.42;;;14.35;;
24715;SDS011;12822;50.124;8.678;2023-12-07T05:35:44;26.40;;;14.30;;
24715;SDS011;12822;50.124;8.678;2023-12-07T05:38:10;27.25;;;13.35;;
24715;SDS011;12822;50.124;8.678;2023-12-07T05:40:37;25.40;;;13.68;;
24715;SDS011;12822;50.124;8.678;2023-12-07T05:43:03;35.38;;;14.15;;
24715;SDS011;12822;50.124;8.678;2023-12-07T05:45:29;27.70;;;13.32;;
24715;SDS011;12822;50.124;8.678;2023-12-07T05:47:55;23.23;;;13.18;;
24715;SDS011;12822;50.124;8.678;2023-12-07T05:50:21;27.77;;;13.93;;
24715;SDS011;12822;50.124;8.678;2023-12-07T05:52:47;30.38;;;14.25;;
24715;SDS011;12822;50.124;8.678;2023-12-07T05:55:13;30.25;;;15.10;;
24715;SDS011;12822;50.124;8.678;2023-12-07T05:57:39;30.17;;;14.27;;
24715;SDS011;12822;50.124;8.678;2023-12-07T06:00:05;28.95;;;14.95;;
24715;SDS011;12822;50.124;8.678;2023-12-07T06:02:35;30.23;;;15.85;;
24715;SDS011;12822;50.124;8.678;2023-12-07T06:05:02;30.08;;;16.20;;
24715;SDS011;12822;50.124;8.678;2023-12-07T06:07:30;27.00;;;15.40;;
24715;SDS011;12822;50.124;8.678;2023-12-07T06:09:56;29.35;;;15.48;;
24715;SDS011;12822;50.124;8.678;2023-12-07T06:12:22;31.67;;;16.13;;
24715;SDS011;12822;50.124;8.678;2023-12-07T06:14:48;29.45;;;16.60;;
24715;SDS011;12822;50.124;8.678;2023-12-07T06:17:14;26.95;;;15.93;;
24715;SDS011;12822;50.124;8.678;2023-12-07T06:19:40;29.70;;;15.98;;
24715;SDS011;12822;50.124;8.678;2023-12-07T06:22:07;27.58;;;15.27;;
24715;SDS011;12822;50.124;8.678;2023-12-07T06:24:33;34.63;;;17.42;;
24715;SDS011;12822;50.124;8.678;2023-12-07T06:27:00;32.58;;;17.10;;
24715;SDS011;12822;50.124;8.678;2023-12-07T06:29:26;37.80;;;18.10;;
24715;SDS011;12822;50.124;8.678;2023-12-07T06:31:54;32.10;;;17.17;;
24715;SDS011;12822;50.124;8.678;2023-12-07T06:34:20;32.05;;;16.88;;
24715;SDS011;12822;50.124;8.678;2023-12-07T06:36:46;33.25;;;17.95;;
24715;SDS011;12822;50.124;8.678;2023-12-07T06:39:12;31.85;;;18.33;;
24715;SDS011;12822;50.124;8.678;2023-12-07T06:41:39;31.60;;;17.83;;
24715;SDS011;12822;50.124;8.678;2023-12-07T06:44:06;39.85;;;19.23;;
24715;SDS011;12822;50.124;8.678;2023-12-07T06:46:33;41.38;;;20.20;;
24715;SDS011;12822;50.124;8.678;2023-12-07T06:48:59;37.60;;;19.50;;
24715;SDS011;12822;50.124;8.678;2023-12-07T06:51:25;41.55;;;20.10;;
24715;SDS011;12822;50.124;8.678;2023-12-07T06:53:51;43.35;;;21.42;;
24715;SDS011;12822;50.124;8.678;2023-12-07T06:56:17;38.45;;;20.90;;
24715;SDS011;12822;50.124;8.678;2023-12-07T06:58:43;43.10;;;22.40;;
24715;SDS011;12822;50.124;8.678;2023-12-07T07:01:09;37.67;;;20.55;;
24715;SDS011;12822;50.124;8.678;2023-12-07T07:03:35;40.90;;;21.90;;
24715;SDS011;12822;50.124;8.678;2023-12-07T07:06:01;45.30;;;22.05;;
24715;SDS011;12822;50.124;8.678;2023-12-07T07:08:27;46.40;;;22.20;;
24715;SDS011;12822;50.124;8.678;2023-12-07T07:10:53;49.55;;;24.40;;
24715;SDS011;12822;50.124;8.678;2023-12-07T07:13:19;46.90;;;23.60;;
24715;SDS011;12822;50.124;8.678;2023-12-07T07:15:45;46.72;;;22.20;;
24715;SDS011;12822;50.124;8.678;2023-12-07T07:18:13;46.58;;;23.13;;
24715;SDS011;12822;50.124;8.678;2023-12-07T07:20:39;47.60;;;24.63;;
24715;SDS011;12822;50.124;8.678;2023-12-07T07:23:05;46.33;;;24.00;;
24715;SDS011;12822;50.124;8.678;2023-12-07T07:25:33;48.10;;;22.90;;
24715;SDS011;12822;50.124;8.678;2023-12-07T07:27:59;42.78;;;23.52;;
24715;SDS011;12822;50.124;8.678;2023-12-07T07:30:25;52.05;;;24.38;;
24715;SDS011;12822;50.124;8.678;2023-12-07T07:32:51;41.60;;;22.20;;
24715;SDS011;12822;50.124;8.678;2023-12-07T07:35:17;37.95;;;21.80;;
24715;SDS011;12822;50.124;8.678;2023-12-07T07:37:43;49.42;;;22.85;;
24715;SDS011;12822;50.124;8.678;2023-12-07T07:40:10;44.38;;;23.55;;
24715;SDS011;12822;50.124;8.678;2023-12-07T07:42:39;39.15;;;22.10;;
24715;SDS011;12822;50.124;8.678;2023-12-07T07:45:06;42.60;;;22.00;;
24715;SDS011;12822;50.124;8.678;2023-12-07T07:47:32;46.38;;;22.38;;
24715;SDS011;12822;50.124;8.678;2023-12-07T07:49:58;44.45;;;22.15;;
24715;SDS011;12822;50.124;8.678;2023-12-07T07:52:32;45.78;;;21.73;;
24715;SDS011;12822;50.124;8.678;2023-12-07T07:54:59;41.88;;;21.58;;
24715;SDS011;12822;50.124;8.678;2023-12-07T07:57:25;38.92;;;21.75;;
24715;SDS011;12822;50.124;8.678;2023-12-07T07:59:51;61.90;;;23.20;;
24715;SDS011;12822;50.124;8.678;2023-12-07T08:02:17;51.13;;;22.52;;
24715;SDS011;12822;50.124;8.678;2023-12-07T08:04:43;45.97;;;22.33;;
24715;SDS011;12822;50.124;8.678;2023-12-07T08:07:09;42.15;;;22.65;;
24715;SDS011;12822;50.124;8.678;2023-12-07T08:09:36;38.75;;;20.10;;
24715;SDS011;12822;50.124;8.678;2023-12-07T08:12:02;36.88;;;21.40;;
24715;SDS011;12822;50.124;8.678;2023-12-07T08:14:28;42.97;;;21.38;;
24715;SDS011;12822;50.124;8.678;2023-12-07T08:16:54;39.97;;;19.77;;
24715;SDS011;12822;50.124;8.678;2023-12-07T08:19:20;32.78;;;18.88;;
24715;SDS011;12822;50.124;8.678;2023-12-07T08:21:46;32.38;;;18.90;;
24715;SDS011;12822;50.124;8.678;2023-12-07T08:24:13;33.88;;;18.80;;
24715;SDS011;12822;50.124;8.678;2023-12-07T08:26:39;36.80;;;19.20;;
24715;SDS011;12822;50.124;8.678;2023-12-07T08:29:06;37.03;;;20.65;;
24715;SDS011;12822;50.124;8.678;2023-12-07T08:31:32;36.72;;;18.73;;
24715;SDS011;12822;50.124;8.678;2023-12-07T08:33:58;41.28;;;21.10;;
24715;SDS011;12822;50.124;8.678;2023-12-07T08:36:25;37.53;;;21.38;;
24715;SDS011;12822;50.124;8.678;2023-12-07T08:38:51;55.88;;;23.20;;
24715;SDS011;12822;50.124;8.678;2023-12-07T08:41:17;48.75;;;23.20;;
24715;SDS011;12822;50.124;8.678;2023-12-07T08:43:43;45.58;;;23.20;;
24715;SDS011;12822;50.124;8.678;2023-12-07T08:46:09;42.60;;;22.55;;
24715;SDS011;12822;50.124;8.678;2023-12-07T08:48:36;46.65;;;23.88;;
24715;SDS011;12822;50.124;8.678;2023-12-07T08:51:03;40.63;;;21.38;;
24715;SDS011;12822;50.124;8.678;2023-12-07T08:53:29;49.30;;;24.02;;
24715;SDS011;12822;50.124;8.678;2023-12-07T08:55:55;41.38;;;23.02;;
24715;SDS011;12822;50.124;8.678;2023-12-07T08:58:21;45.97;;;24.27;;
24715;SDS011;12822;50.124;8.678;2023-12-07T09:00:47;43.40;;;21.98;;
24715;SDS011;12822;50.124;8.678;2023-12-07T09:03:13;43.72;;;22.52;;
24715;SDS011;12822;50.124;8.678;2023-12-07T09:05:38;44.17;;;23.75;;
24715;SDS011;12822;50.124;8.678;2023-12-07T09:08:04;38.47;;;20.85;;
24715;SDS011;12822;50.124;8.678;2023-12-07T09:10:31;35.00;;;21.27;;
24715;SDS011;12822;50.124;8.678;2023-12-07T09:12:57;36.17;;;19.73;;
24715;SDS011;12822;50.124;8.678;2023-12-07T09:15:23;37.28;;;19.65;;
24715;SDS011;12822;50.124;8.678;2023-12-07T09:17:49;38.92;;;21.13;;
24715;SDS011;12822;50.124;8.678;2023-12-07T09:20:15;34.05;;;18.77;;
24715;SDS011;12822;50.124;8.678;2023-12-07T09:22:44;41.67;;;19.52;;
24715;SDS011;12822;50.124;8.678;2023-12-07T09:25:11;31.67;;;17.98;;
24715;SDS011;12822;50.124;8.678;2023-12-07T09:27:38;33.47;;;18.23;;
24715;SDS011;12822;50.124;8.678;2023-12-07T09:30:05;30.05;;;17.52;;
24715;SDS011;12822;50.124;8.678;2023-12-07T09:32:31;28.55;;;17.10;;
24715;SDS011;12822;50.124;8.678;2023-12-07T09:37:28;27.75;;;16.10;;
24715;SDS011;12822;50.124;8.678;2023-12-07T09:39:54;31.05;;;18.65;;
24715;SDS011;12822;50.124;8.678;2023-12-07T09:42:20;32.03;;;18.15;;
24715;SDS011;12822;50.124;8.678;2023-12-07T09:44:46;33.08;;;18.83;;
24715;SDS011;12822;50.124;8.678;2023-12-07T09:47:12;32.60;;;17.58;;
24715;SDS011;12822;50.124;8.678;2023-12-07T09:49:39;31.48;;;18.33;;
24715;SDS011;12822;50.124;8.678;2023-12-07T09:52:05;32.22;;;17.52;;
24715;SDS011;12822;50.124;8.678;2023-12-07T09:54:32;25.50;;;15.85;;
24715;SDS011;12822;50.124;8.678;2023-12-07T09:57:00;27.13;;;16.83;;
24715;SDS011;12822;50.124;8.678;2023-12-07T09:59:26;26.08;;;16.08;;
24715;SDS011;12822;50.124;8.678;2023-12-07T10:01:52;29.05;;;16.50;;
24715;SDS011;12822;50.124;8.678;2023-12-07T10:04:21;29.02;;;16.80;;
24715;SDS011;12822;50.124;8.678;2023-12-07T10:06:51;28.77;;;16.92;;
24715;SDS011;12822;50.124;8.678;2023-12-07T10:09:17;31.33;;;16.75;;
24715;SDS011;12822;50.124;8.678;2023-12-07T10:11:47;25.92;;;16.25;;
24715;SDS011;12822;50.124;8.678;2023-12-07T10:14:13;27.88;;;16.60;;
24715;SDS011;12822;50.124;8.678;2023-12-07T10:16:51;29.67;;;17.30;;
24715;SDS011;12822;50.124;8.678;2023-12-07T10:19:18;33.30;;;21.98;;
24715;SDS011;12822;50.124;8.678;2023-12-07T10:21:46;42.28;;;23.67;;
24715;SDS011;12822;50.124;8.678;2023-12-07T10:24:12;43.60;;;24.92;;
24715;SDS011;12822;50.124;8.678;2023-12-07T10:26:39;54.95;;;28.10;;
24715;SDS011;12822;50.124;8.678;2023-12-07T10:29:05;45.03;;;25.65;;
24715;SDS011;12822;50.124;8.678;2023-12-07T10:31:32;46.75;;;26.55;;
24715;SDS011;12822;50.124;8.678;2023-12-07T10:33:58;47.58;;;26.45;;
24715;SDS011;12822;50.124;8.678;2023-12-07T10:36:25;50.15;;;26.02;;
24715;SDS011;12822;50.124;8.678;2023-12-07T10:38:53;46.63;;;26.13;;
24715;SDS011;12822;50.124;8.678;2023-12-07T10:41:20;45.42;;;25.42;;
24715;SDS011;12822;50.124;8.678;2023-12-07T10:43:51;45.45;;;25.42;;
24715;SDS011;12822;50.124;8.678;2023-12-07T10:48:47;43.10;;;23.85;;
24715;SDS011;12822;50.124;8.678;2023-12-07T10:53:48;42.15;;;24.52;;
24715;SDS011;12822;50.124;8.678;2023-12-07T10:56:20;42.75;;;24.55;;
24715;SDS011;12822;50.124;8.678;2023-12-07T11:01:13;41.20;;;23.02;;
24715;SDS011;12822;50.124;8.678;2023-12-07T11:03:40;40.08;;;22.77;;
24715;SDS011;12822;50.124;8.678;2023-12-07T11:06:07;43.53;;;23.20;;
24715;SDS011;12822;50.124;8.678;2023-12-07T11:08:41;42.28;;;23.95;;
24715;SDS011;12822;50.124;8.678;2023-12-07T11:11:15;43.92;;;24.52;;
24715;SDS011;12822;50.124;8.678;2023-12-07T11:13:47;42.45;;;24.92;;
24715;SDS011;12822;50.124;8.678;2023-12-07T11:16:17;51.30;;;26.40;;
24715;SDS011;12822;50.124;8.678;2023-12-07T11:18:53;51.88;;;25.75;;
24715;SDS011;12822;50.124;8.678;2023-12-07T11:21:19;46.42;;;24.92;;
24715;SDS011;12822;50.124;8.678;2023-12-07T11:23:46;46.15;;;25.23;;
24715;SDS011;12822;50.124;8.678;2023-12-07T11:26:12;44.30;;;25.73;;
24715;SDS011;12822;50.124;8.678;2023-12-07T11:28:38;54.58;;;27.52;;
24715;SDS011;12822;50.124;8.678;2023-12-07T11:31:07;48.67;;;25.45;;
24715;SDS011;12822;50.124;8.678;2023-12-07T11:33:34;46.45;;;26.50;;
24715;SDS011;12822;50.124;8.678;2023-12-07T11:36:03;57.17;;;28.75;;
24715;SDS011;12822;50.124;8.678;2023-12-07T11:38:29;53.42;;;27.65;;
24715;SDS011;12822;50.124;8.678;2023-12-07T11:40:55;55.25;;;27.55;;
24715;SDS011;12822;50.124;8.678;2023-12-07T11:46:00;63.88;;;29.63;;
24715;SDS011;12822;50.124;8.678;2023-12-07T11:48:26;57.47;;;29.42;;
24715;SDS011;12822;50.124;8.678;2023-12-07T11:51:00;56.97;;;27.65;;
24715;SDS011;12822;50.124;8.678;2023-12-07T11:53:26;61.15;;;29.65;;
24715;SDS011;12822;50.124;8.678;2023-12-07T11:55:54;57.08;;;28.90;;
24715;SDS011;12822;50.124;8.678;2023-12-07T11:58:21;62.33;;;31.40;;
24715;SDS011;12822;50.124;8.678;2023-12-07T12:00:47;61.63;;;30.25;;
24715;SDS011;12822;50.124;8.678;2023-12-07T12:03:14;60.35;;;29.52;;
24715;SDS011;12822;50.124;8.678;2023-12-07T12:05:40;57.55;;;29.40;;
24715;SDS011;12822;50.124;8.678;2023-12-07T12:08:06;58.80;;;28.95;;
24715;SDS011;12822;50.124;8.678;2023-12-07T12:10:32;54.50;;;28.45;;
24715;SDS011;12822;50.124;8.678;2023-12-07T12:13:02;56.63;;;28.65;;
24715;SDS011;12822;50.124;8.678;2023-12-07T12:15:28;59.78;;;30.00;;
24715;SDS011;12822;50.124;8.678;2023-12-07T12:17:58;58.70;;;29.60;;
24715;SDS011;12822;50.124;8.678;2023-12-07T12:20:27;61.63;;;29.92;;
24715;SDS011;12822;50.124;8.678;2023-12-07T12:22:53;53.30;;;29.10;;
24715;SDS011;12822;50.124;8.678;2023-12-07T12:25:23;52.28;;;27.60;;
24715;SDS011;12822;50.124;8.678;2023-12-07T12:28:01;57.25;;;29.58;;
24715;SDS011;12822;50.124;8.678;2023-12-07T12:30:28;55.58;;;26.77;;
24715;SDS011;12822;50.124;8.678;2023-12-07T12:32:55;50.58;;;27.73;;
24715;SDS011;12822;50.124;8.678;2023-12-07T12:35:21;55.97;;;26.17;;
24715;SDS011;12822;50.124;8.678;2023-12-07T12:37:47;57.58;;;27.20;;
24715;SDS011;12822;50.124;8.678;2023-12-07T12:40:17;52.08;;;26.23;;
24715;SDS011;12822;50.124;8.678;2023-12-07T12:42:46;61.35;;;28.42;;
24715;SDS011;12822;50.124;8.678;2023-12-07T12:45:13;51.22;;;26.52;;
24715;SDS011;12822;50.124;8.678;2023-12-07T12:47:40;55.35;;;27.40;;
24715;SDS011;12822;50.124;8.678;2023-12-07T12:50:06;54.97;;;27.83;;
24715;SDS011;12822;50.124;8.678;2023-12-07T12:52:33;51.65;;;28.55;;
24715;SDS011;12822;50.124;8.678;2023-12-07T12:54:59;53.63;;;28.48;;
24715;SDS011;12822;50.124;8.678;2023-12-07T12:57:25;48.28;;;25.42;;
24715;SDS011;12822;50.124;8.678;2023-12-07T12:59:52;28.40;;;17.70;;
24715;SDS011;12822;50.124;8.678;2023-12-07T13:02:19;37.60;;;19.77;;
24715;SDS011;12822;50.124;8.678;2023-12-07T13:04:45;33.80;;;19.15;;
24715;SDS011;12822;50.124;8.678;2023-12-07T13:07:12;37.67;;;19.95;;
24715;SDS011;12822;50.124;8.678;2023-12-07T13:09:39;39.40;;;21.30;;
24715;SDS011;12822;50.124;8.678;2023-12-07T13:12:06;43.67;;;25.70;;
24715;SDS011;12822;50.124;8.678;2023-12-07T13:14:32;49.80;;;26.45;;
24715;SDS011;12822;50.124;8.678;2023-12-07T13:17:00;55.22;;;29.65;;
24715;SDS011;12822;50.124;8.678;2023-12-07T13:19:27;57.90;;;29.25;;
24715;SDS011;12822;50.124;8.678;2023-12-07T13:21:53;64.63;;;32.80;;
24715;SDS011;12822;50.124;8.678;2023-12-07T13:24:19;64.43;;;33.22;;
24715;SDS011;12822;50.124;8.678;2023-12-07T13:26:45;62.30;;;35.08;;
24715;SDS011;12822;50.124;8.678;2023-12-07T13:29:12;63.50;;;32.92;;
24715;SDS011;12822;50.124;8.678;2023-12-07T13:31:38;68.57;;;34.60;;
24715;SDS011;12822;50.124;8.678;2023-12-07T13:34:04;60.65;;;34.08;;
24715;SDS011;12822;50.124;8.678;2023-12-07T13:36:33;73.95;;;36.85;;
24715;SDS011;12822;50.124;8.678;2023-12-07T13:39:00;71.32;;;36.00;;
24715;SDS011;12822;50.124;8.678;2023-12-07T13:41:27;74.13;;;37.85;;
24715;SDS011;12822;50.124;8.678;2023-12-07T13:43:53;69.65;;;37.60;;
24715;SDS011;12822;50.124;8.678;2023-12-07T13:46:19;71.05;;;37.50;;
24715;SDS011;12822;50.124;8.678;2023-12-07T13:48:45;69.70;;;36.30;;
24715;SDS011;12822;50.124;8.678;2023-12-07T13:51:12;73.32;;;37.17;;
24715;SDS011;12822;50.124;8.678;2023-12-07T13:53:38;75.28;;;36.17;;
24715;SDS011;12822;50.124;8.678;2023-12-07T13:56:04;76.95;;;36.45;;
24715;SDS011;12822;50.124;8.678;2023-12-07T13:58:30;86.43;;;39.03;;
24715;SDS011;12822;50.124;8.678;2023-12-07T14:00:56;79.78;;;40.17;;
24715;SDS011;12822;50.124;8.678;2023-12-07T14:03:22;77.32;;;37.38;;
24715;SDS011;12822;50.124;8.678;2023-12-07T14:05:49;75.85;;;38.15;;
24715;SDS011;12822;50.124;8.678;2023-12-07T14:08:15;77.22;;;37.42;;
24715;SDS011;12822;50.124;8.678;2023-12-07T14:10:41;77.60;;;37.90;;
24715;SDS011;12822;50.124;8.678;2023-12-07T14:13:07;73.85;;;37.13;;
24715;SDS011;12822;50.124;8.678;2023-12-07T14:15:34;75.57;;;36.90;;
24715;SDS011;12822;50.124;8.678;2023-12-07T14:18:00;82.55;;;37.90;;
24715;SDS011;12822;50.124;8.678;2023-12-07T14:20:29;76.15;;;37.47;;
24715;SDS011;12822;50.124;8.678;2023-12-07T14:22:56;79.05;;;36.80;;
24715;SDS011;12822;50.124;8.678;2023-12-07T14:25:22;79.47;;;37.42;;
24715;SDS011;12822;50.124;8.678;2023-12-07T14:27:49;68.20;;;34.83;;
24715;SDS011;12822;50.124;8.678;2023-12-07T14:30:15;71.90;;;35.17;;
24715;SDS011;12822;50.124;8.678;2023-12-07T14:32:44;69.07;;;35.17;;